createdAt,value
2019-05-15T00:01:21.709Z,6.10
2019-05-15T00:03:50.889Z,7.60
2019-05-15T00:06:19.995Z,6.33
2019-05-15T00:08:49.214Z,7.03
2019-05-15T00:11:39.013Z,6.50
2019-05-15T00:14:28.846Z,8.63
2019-05-15T00:16:58.679Z,7.27
2019-05-15T00:19:28.454Z,10.10
2019-05-15T00:21:58.552Z,6.93
2019-05-15T00:24:28.752Z,9.17
2019-05-15T00:26:58.851Z,7.03
2019-05-15T00:29:28.916Z,7.77
2019-05-15T00:31:58.916Z,9.97
2019-05-15T00:34:28.579Z,11.27
2019-05-15T00:36:58.398Z,9.50
2019-05-15T00:39:28.394Z,7.57
2019-05-15T00:41:59.009Z,8.40
2019-05-15T00:44:28.205Z,8.80
2019-05-15T00:46:58.237Z,10.10
2019-05-15T00:49:28.957Z,8.67
2019-05-15T00:51:59.154Z,10.03
2019-05-15T00:54:28.391Z,7.83
2019-05-15T00:56:57.947Z,12.00
2019-05-15T00:59:29.997Z,7.73
2019-05-15T01:01:59.432Z,9.30
2019-05-15T01:04:28.588Z,9.63
2019-05-15T01:06:58.896Z,8.47
2019-05-15T01:09:29.214Z,11.73
2019-05-15T01:11:58.719Z,8.63
2019-05-15T01:14:49.026Z,9.63
2019-05-15T01:17:18.482Z,10.10
2019-05-15T01:19:48.222Z,11.03
2019-05-15T01:22:19.418Z,9.07
2019-05-15T01:25:08.640Z,8.53
2019-05-15T01:27:38.867Z,14.27
2019-05-15T01:30:28.603Z,9.63
2019-05-15T01:33:08.420Z,10.97
2019-05-15T01:35:38.239Z,8.87
2019-05-15T01:38:08.219Z,10.00
2019-05-15T01:40:38.488Z,8.90
2019-05-15T01:43:09.197Z,10.30
2019-05-15T01:45:39.446Z,9.63
2019-05-15T01:48:08.762Z,8.00
2019-05-15T01:50:38.773Z,9.03
2019-05-15T01:53:08.516Z,8.57
2019-05-15T01:55:39.498Z,7.50
2019-05-15T01:58:09.337Z,8.50
2019-05-15T02:00:39.228Z,7.33
2019-05-15T02:03:09.704Z,7.33
2019-05-15T02:05:39.572Z,9.03
2019-05-15T02:08:08.718Z,7.37
2019-05-15T02:10:39.275Z,7.07
2019-05-15T02:13:08.908Z,8.43
2019-05-15T02:15:39.491Z,7.80
2019-05-15T02:18:08.828Z,7.80
2019-05-15T02:20:38.958Z,8.30
2019-05-15T02:23:11.706Z,7.00
2019-05-15T02:25:39.697Z,9.23
2019-05-15T02:28:09.458Z,10.03
2019-05-15T02:30:40.730Z,8.50
2019-05-15T02:33:11.029Z,7.97
2019-05-15T02:35:40.325Z,9.50
2019-05-15T02:38:10.439Z,6.90
2019-05-15T02:40:40.967Z,7.40
2019-05-15T02:43:29.959Z,7.77
2019-05-15T02:46:00.512Z,8.50
2019-05-15T02:48:29.783Z,7.43
2019-05-15T02:50:59.089Z,9.80
2019-05-15T02:53:30.059Z,7.17
2019-05-15T02:56:00.310Z,8.03
2019-05-15T02:58:56.014Z,8.13
2019-05-15T03:01:28.656Z,7.33
2019-05-15T03:03:59.661Z,6.97
2019-05-15T03:06:29.840Z,9.07
2019-05-15T03:09:18.923Z,8.63
2019-05-15T03:11:49.830Z,8.37
2019-05-15T03:14:21.476Z,6.33
2019-05-15T03:16:49.973Z,6.73
2019-05-15T03:19:39.258Z,6.83
2019-05-15T03:22:09.728Z,9.07
2019-05-15T03:24:59.268Z,7.53
2019-05-15T03:27:50.386Z,8.33
2019-05-15T03:30:21.865Z,7.13
2019-05-15T03:33:17.409Z,11.17
2019-05-15T03:35:43.315Z,7.63
2019-05-15T03:38:30.302Z,8.33
2019-05-15T03:40:59.806Z,6.97
2019-05-15T03:43:29.401Z,7.03
2019-05-15T03:46:02.101Z,7.33
2019-05-15T03:48:31.341Z,7.83
2019-05-15T03:51:00.648Z,8.63
2019-05-15T03:53:30.182Z,9.23
2019-05-15T03:55:59.585Z,9.37
2019-05-15T03:58:29.040Z,8.50
2019-05-15T04:01:00.324Z,10.63
2019-05-15T04:03:30.108Z,8.63
2019-05-15T04:06:00.534Z,8.40
2019-05-15T04:08:50.693Z,8.00
2019-05-15T04:11:20.444Z,8.70
2019-05-15T04:13:50.297Z,12.67
2019-05-15T04:16:19.422Z,8.73
2019-05-15T04:18:49.266Z,8.57
2019-05-15T04:21:41.379Z,9.50
2019-05-15T04:24:09.497Z,10.13
2019-05-15T04:26:59.837Z,9.17
2019-05-15T04:29:29.204Z,7.80
2019-05-15T04:32:05.847Z,6.50
2019-05-15T04:34:32.407Z,7.77
2019-05-15T04:37:24.991Z,7.37
2019-05-15T04:40:19.321Z,8.37
2019-05-15T04:42:50.053Z,7.63
2019-05-15T04:45:39.168Z,9.63
2019-05-15T04:48:10.059Z,7.97
2019-05-15T04:50:43.256Z,11.80
2019-05-15T04:53:12.421Z,7.93
2019-05-15T04:55:41.728Z,9.47
2019-05-15T04:58:10.909Z,8.17
2019-05-15T05:00:54.448Z,7.20
2019-05-15T05:03:23.629Z,9.07
2019-05-15T05:05:52.679Z,6.93
2019-05-15T05:08:29.059Z,7.67
2019-05-15T05:10:54.445Z,7.43
2019-05-15T05:13:23.645Z,6.80
2019-05-15T05:16:11.888Z,8.77
2019-05-15T05:18:41.894Z,8.20
2019-05-15T05:21:11.083Z,8.73
2019-05-15T05:23:40.122Z,9.77
2019-05-15T05:26:11.230Z,8.37
2019-05-15T05:29:01.455Z,7.73
2019-05-15T05:31:29.945Z,9.00
2019-05-15T05:34:19.400Z,7.67
2019-05-15T05:36:48.756Z,8.23
2019-05-15T05:39:19.888Z,6.57
2019-05-15T05:42:07.925Z,13.03
2019-05-15T05:44:45.011Z,6.60
2019-05-15T05:47:18.173Z,7.73
2019-05-15T05:49:48.654Z,7.40
2019-05-15T05:52:18.577Z,7.10
2019-05-15T05:54:49.049Z,6.27
2019-05-15T05:57:38.249Z,7.57
2019-05-15T06:00:09.390Z,6.93
2019-05-15T06:02:46.861Z,7.70
2019-05-15T06:05:28.773Z,6.80
2019-05-15T06:08:01.655Z,6.70
2019-05-15T06:10:30.925Z,5.73
2019-05-15T06:12:59.963Z,7.40
2019-05-15T06:15:51.234Z,7.53
2019-05-15T06:18:20.388Z,5.97
2019-05-15T06:21:09.253Z,7.23
2019-05-15T06:23:45.515Z,7.23
2019-05-15T06:26:34.552Z,6.63
2019-05-15T06:29:22.979Z,6.70
2019-05-15T06:31:55.323Z,4.90
2019-05-15T06:34:43.737Z,6.60
2019-05-15T06:37:16.277Z,6.73
2019-05-15T06:40:10.557Z,6.03
2019-05-15T06:42:48.368Z,5.67
2019-05-15T06:45:31.804Z,5.07
2019-05-15T06:48:01.618Z,4.57
2019-05-15T06:50:50.222Z,4.97
2019-05-15T06:53:43.096Z,5.43
2019-05-15T06:56:38.659Z,5.57
2019-05-15T06:59:14.906Z,5.07
2019-05-15T07:01:48.131Z,6.37
2019-05-15T07:04:18.208Z,6.77
2019-05-15T07:06:48.868Z,6.13
2019-05-15T07:09:18.366Z,5.83
2019-05-15T07:11:48.293Z,6.23
2019-05-15T07:14:18.084Z,5.33
2019-05-15T07:16:48.881Z,4.13
2019-05-15T07:19:20.572Z,8.23
2019-05-15T07:21:49.760Z,5.43
2019-05-15T07:24:24.521Z,4.80
2019-05-15T07:27:14.836Z,3.73
2019-05-15T07:29:50.295Z,5.93
2019-05-15T07:32:21.263Z,3.63
2019-05-15T07:34:51.882Z,3.90
2019-05-15T07:37:58.479Z,4.70
2019-05-15T07:40:21.053Z,4.83
2019-05-15T07:42:50.247Z,4.63
2019-05-15T07:45:19.880Z,4.93
2019-05-15T07:48:01.352Z,5.57
2019-05-15T07:50:51.435Z,3.67
2019-05-15T07:53:20.700Z,5.17
2019-05-15T07:56:24.113Z,4.93
2019-05-15T07:59:25.126Z,3.63
2019-05-15T08:05:24.358Z,2.43
2019-05-15T08:07:53.864Z,3.83
2019-05-15T08:10:34.881Z,5.90
2019-05-15T08:13:23.218Z,6.37
2019-05-15T08:15:58.550Z,4.00
2019-05-15T08:19:09.160Z,5.30
2019-05-15T08:21:58.113Z,3.83
2019-05-15T08:24:29.859Z,2.27
2019-05-15T08:27:18.922Z,2.27
2019-05-15T08:29:49.916Z,2.37
2019-05-15T08:32:38.883Z,3.50
2019-05-15T08:35:18.907Z,2.90
2019-05-15T08:38:00.968Z,3.50
2019-05-15T08:40:41.141Z,2.43
2019-05-15T08:43:31.200Z,3.15
2019-05-15T08:48:58.291Z,3.83
2019-05-15T08:51:42.384Z,3.93
2019-05-15T08:54:43.645Z,5.08
2019-05-15T08:57:20.342Z,3.17
2019-05-15T09:00:10.596Z,4.20
2019-05-15T09:09:19.304Z,2.43
2019-05-15T09:12:10.190Z,2.70
2019-05-15T09:14:59.357Z,3.50
2019-05-15T09:17:28.448Z,2.77
2019-05-15T09:20:03.153Z,3.30
2019-05-15T09:22:29.140Z,5.20
2019-05-15T09:24:58.987Z,3.27
2019-05-15T09:27:31.351Z,3.97
2019-05-15T09:30:25.764Z,4.23
2019-05-15T09:33:01.769Z,3.30
2019-05-15T09:36:11.265Z,3.17
2019-05-15T09:38:58.577Z,3.77
2019-05-15T09:41:38.050Z,2.70
2019-05-15T09:44:07.975Z,2.90
2019-05-15T09:46:58.473Z,3.87
2019-05-15T09:49:40.910Z,5.57
2019-05-15T09:52:10.112Z,5.07
2019-05-15T09:54:39.535Z,3.93
2019-05-15T09:57:10.703Z,3.23
2019-05-15T09:59:40.014Z,4.33
2019-05-15T10:02:09.674Z,3.20
2019-05-15T10:04:44.057Z,4.07
2019-05-15T10:07:13.476Z,9.43
2019-05-15T10:09:42.644Z,3.73
2019-05-15T10:12:12.088Z,3.13
2019-05-15T10:14:41.383Z,3.60
2019-05-15T10:17:11.105Z,4.43
2019-05-15T10:19:40.766Z,5.53
2019-05-15T10:22:10.142Z,4.27
2019-05-15T10:24:58.964Z,5.50
2019-05-15T10:27:28.807Z,3.47
2019-05-15T10:29:58.800Z,2.77
2019-05-15T10:32:28.998Z,3.50
2019-05-15T10:34:58.690Z,4.67
2019-05-15T10:37:28.432Z,5.33
2019-05-15T10:39:58.512Z,3.10
2019-05-15T10:42:29.003Z,2.77
2019-05-15T10:44:58.871Z,3.47
2019-05-15T10:47:28.891Z,4.57
2019-05-15T10:50:00.161Z,4.27
2019-05-15T10:52:29.816Z,4.93
2019-05-15T10:55:00.955Z,3.63
2019-05-15T10:57:30.022Z,3.40
2019-05-15T10:59:59.207Z,4.70
2019-05-15T11:02:28.972Z,4.77
2019-05-15T11:04:59.060Z,2.87
2019-05-15T11:07:28.506Z,3.77
2019-05-15T11:09:58.235Z,3.93
2019-05-15T11:12:29.229Z,5.47
2019-05-15T11:15:01.762Z,4.90
2019-05-15T11:17:31.604Z,2.87
2019-05-15T11:20:01.200Z,3.10
2019-05-15T11:22:30.604Z,3.43
2019-05-15T11:24:59.868Z,4.57
2019-05-15T11:27:31.292Z,3.50
2019-05-15T11:30:00.008Z,3.33
2019-05-15T11:32:30.172Z,6.60
2019-05-15T11:34:59.525Z,3.40
2019-05-15T11:37:28.995Z,4.37
2019-05-15T11:39:59.006Z,3.33
2019-05-15T11:42:28.980Z,3.30
2019-05-15T11:44:58.513Z,4.43
2019-05-15T11:47:28.366Z,3.13
2019-05-15T11:49:58.473Z,3.17
2019-05-15T11:53:29.024Z,4.43
2019-05-15T11:56:19.194Z,3.97
2019-05-15T11:59:04.935Z,3.30
2019-05-15T12:02:22.235Z,3.57
2019-05-15T12:04:51.415Z,3.90
2019-05-15T12:07:20.720Z,4.63
2019-05-15T12:09:58.096Z,3.73
2019-05-15T12:12:31.802Z,3.43
2019-05-15T12:14:58.241Z,4.50
2019-05-15T12:17:28.427Z,3.90
2019-05-15T12:20:05.316Z,3.47
2019-05-15T12:22:29.019Z,3.40
2019-05-15T12:25:00.438Z,3.23
2019-05-15T12:27:29.295Z,3.57
2019-05-15T12:29:59.929Z,4.20
2019-05-15T12:32:36.447Z,3.13
2019-05-15T12:35:00.538Z,3.43
2019-05-15T12:37:30.115Z,3.80
2019-05-15T13:00:15.031Z,4.27
2019-05-15T13:02:43.949Z,3.43
2019-05-15T13:05:14.656Z,2.57
2019-05-15T13:08:03.070Z,2.83
2019-05-15T13:10:32.468Z,3.23
2019-05-15T13:13:05.312Z,3.70
2019-05-15T13:15:40.437Z,2.93
2019-05-15T13:18:13.800Z,4.77
2019-05-15T13:21:07.899Z,3.17
2019-05-15T13:23:56.092Z,2.87
2019-05-15T13:26:31.950Z,4.30
2019-05-15T13:29:01.142Z,3.40
2019-05-15T13:31:30.470Z,3.03
2019-05-15T13:34:00.164Z,3.93
2019-05-15T13:36:41.338Z,3.90
2019-05-15T13:39:10.507Z,5.27
2019-05-15T13:41:39.695Z,3.83
2019-05-15T13:44:09.136Z,4.93
2019-05-15T13:46:38.388Z,5.60
2019-05-15T13:49:09.371Z,4.13
2019-05-15T13:51:38.648Z,3.60
2019-05-15T13:54:08.844Z,3.50
2019-05-15T13:56:38.236Z,4.97
2019-05-15T13:59:12.115Z,3.37
2019-05-15T14:01:49.146Z,4.47
2019-05-15T14:04:18.525Z,3.40
2019-05-15T14:06:50.594Z,3.43
2019-05-15T14:09:19.790Z,5.60
2019-05-15T14:11:51.985Z,3.53
2019-05-15T14:14:41.982Z,6.37
2019-05-15T14:17:14.486Z,2.67
2019-05-15T14:19:43.887Z,3.20
2019-05-15T14:22:41.624Z,4.63
2019-05-15T14:25:11.018Z,2.67
2019-05-15T14:27:40.612Z,3.07
2019-05-15T14:30:10.539Z,3.40
2019-05-15T14:32:39.935Z,3.87
2019-05-15T14:35:09.477Z,2.60
2019-05-15T14:37:38.656Z,3.03
2019-05-15T14:40:09.516Z,3.03
2019-05-15T14:42:39.805Z,2.60
2019-05-15T14:45:09.723Z,3.23
2019-05-15T14:47:39.123Z,2.60
2019-05-15T14:50:10.094Z,3.10
2019-05-15T14:52:39.643Z,3.30
2019-05-15T14:55:09.179Z,3.77
2019-05-15T14:57:39.287Z,4.83
2019-05-15T15:00:09.461Z,4.73
2019-05-15T15:02:39.227Z,4.27
2019-05-15T15:05:09.137Z,6.33
2019-05-15T15:07:38.690Z,3.90
2019-05-15T15:10:08.316Z,4.20
2019-05-15T15:12:39.652Z,3.60
2019-05-15T15:15:10.321Z,5.03
2019-05-15T15:17:39.713Z,4.13
2019-05-15T15:20:09.483Z,4.27
2019-05-15T15:22:39.440Z,4.23
2019-05-15T15:25:10.283Z,4.47
2019-05-15T15:27:39.474Z,4.10
2019-05-15T15:30:09.484Z,4.97
2019-05-15T15:32:38.963Z,3.67
2019-05-15T15:35:09.275Z,3.77
2019-05-15T15:37:38.994Z,4.00
2019-05-15T15:40:08.604Z,4.67
2019-05-15T15:42:39.492Z,4.50
2019-05-15T15:45:09.432Z,6.53
2019-05-15T15:47:39.258Z,5.37
2019-05-15T15:50:09.535Z,4.03
2019-05-15T15:52:39.160Z,4.77
2019-05-15T15:55:09.065Z,5.80
2019-05-15T15:57:39.719Z,5.07
2019-05-15T16:00:10.380Z,4.00
2019-05-15T16:02:40.947Z,4.57
2019-05-15T16:05:10.713Z,4.97
2019-05-15T16:07:39.799Z,4.50
2019-05-15T16:10:09.327Z,5.17
2019-05-15T16:12:39.075Z,5.17
2019-05-15T16:15:09.557Z,5.43
2019-05-15T16:17:38.915Z,4.67
2019-05-15T16:20:09.167Z,4.57
2019-05-15T16:22:38.618Z,4.80
2019-05-15T16:25:09.766Z,4.63
2019-05-15T16:27:39.244Z,4.40
2019-05-15T16:30:28.212Z,5.27
2019-05-15T16:32:58.539Z,4.20
2019-05-15T16:35:48.656Z,5.90
2019-05-15T16:38:38.805Z,4.33
2019-05-15T16:41:08.998Z,4.97
2019-05-15T16:44:08.580Z,4.47
2019-05-15T16:47:13.469Z,4.60
2019-05-15T16:49:42.793Z,5.10
2019-05-15T16:52:20.375Z,4.30
2019-05-15T16:54:59.886Z,4.40
2019-05-15T16:57:29.003Z,5.63
2019-05-15T16:59:58.739Z,4.40
2019-05-15T17:02:32.291Z,4.70
2019-05-15T17:05:01.383Z,6.73
2019-05-15T17:07:30.671Z,4.80
2019-05-15T17:09:59.771Z,10.90
2019-05-15T17:12:28.900Z,6.23
2019-05-15T17:15:17.931Z,6.50
2019-05-15T17:17:50.346Z,5.87
2019-05-15T17:20:19.556Z,7.17
2019-05-15T17:22:48.709Z,9.20
2019-05-15T17:25:38.191Z,7.93
2019-05-15T17:28:28.817Z,4.73
2019-05-15T17:30:58.394Z,5.03
2019-05-15T17:33:28.978Z,5.23
2019-05-15T17:35:58.199Z,6.20
2019-05-15T17:38:28.665Z,6.93
2019-05-15T17:40:58.437Z,4.17
2019-05-15T17:43:28.682Z,4.73
2019-05-15T17:45:58.330Z,5.20
2019-05-15T17:48:28.904Z,3.57
2019-05-15T17:50:59.015Z,8.20
2019-05-15T17:53:28.905Z,3.80
2019-05-15T17:55:58.663Z,6.57
2019-05-15T17:58:28.883Z,4.50
2019-05-15T18:01:19.156Z,6.00
2019-05-15T18:03:48.614Z,5.97
2019-05-15T18:06:18.087Z,3.90
2019-05-15T18:08:48.549Z,4.07
2019-05-15T18:11:18.722Z,5.20
2019-05-15T18:13:48.713Z,4.30
2019-05-15T18:16:18.299Z,4.37
2019-05-15T18:18:47.897Z,6.90
2019-05-15T18:21:18.383Z,5.53
2019-05-15T18:23:48.666Z,4.13
2019-05-15T18:26:18.411Z,5.27
2019-05-15T18:28:48.889Z,4.50
2019-05-15T18:31:18.270Z,5.10
2019-05-15T18:33:53.669Z,6.03
2019-05-15T18:36:18.256Z,7.17
2019-05-15T18:38:48.211Z,6.17
2019-05-15T18:41:18.374Z,4.13
2019-05-15T18:43:48.416Z,4.40
2019-05-15T18:46:18.339Z,5.57
2019-05-15T18:48:48.608Z,4.60
2019-05-15T18:51:17.837Z,4.80
2019-05-15T18:53:48.186Z,5.63
2019-05-15T18:56:18.663Z,4.10
2019-05-15T18:58:48.454Z,4.87
2019-05-15T19:01:17.929Z,5.37
2019-05-15T19:03:47.044Z,3.80
2019-05-15T19:06:18.302Z,4.07
2019-05-15T19:08:47.032Z,3.73
2019-05-15T19:11:18.180Z,4.87
2019-05-15T19:13:48.134Z,6.47
2019-05-15T19:16:17.303Z,3.80
2019-05-15T19:18:47.924Z,5.60
2019-05-15T19:21:17.185Z,6.40
2019-05-15T19:23:47.852Z,3.67
2019-05-15T19:26:18.251Z,4.03
2019-05-15T19:28:48.571Z,5.03
2019-05-15T19:31:26.563Z,4.30
2019-05-15T19:34:08.591Z,4.53
2019-05-15T19:36:38.269Z,3.50
2019-05-15T19:39:58.467Z,4.70
2019-05-15T19:42:48.828Z,9.50
2019-05-15T19:45:17.941Z,3.77
2019-05-15T19:47:47.838Z,5.33
2019-05-15T19:50:18.027Z,3.43
2019-05-15T19:52:48.227Z,3.80
2019-05-15T19:55:18.015Z,5.23
2019-05-15T19:58:08.796Z,6.03
2019-05-15T20:00:51.529Z,4.27
2019-05-15T20:03:24.474Z,5.80
2019-05-15T20:05:53.492Z,5.47
2019-05-15T20:08:22.560Z,3.93
2019-05-15T20:10:51.863Z,5.00
2019-05-15T20:13:42.132Z,4.77
2019-05-15T20:16:11.136Z,5.20
2019-05-15T20:18:40.297Z,5.00
2019-05-15T20:21:09.456Z,4.00
2019-05-15T20:23:38.564Z,5.17
2019-05-15T20:26:08.419Z,4.60
2019-05-15T20:28:39.276Z,5.90
2019-05-15T20:31:08.548Z,6.13
2019-05-15T20:34:15.933Z,4.20
2019-05-15T20:36:48.758Z,4.23
2019-05-15T20:39:38.657Z,6.60
2019-05-15T20:42:08.883Z,7.37
2019-05-15T20:44:38.119Z,6.87
2019-05-15T20:47:08.293Z,7.50
2019-05-15T20:49:37.879Z,5.10
2019-05-15T20:52:07.051Z,6.90
2019-05-15T20:54:38.632Z,5.00
2019-05-15T20:57:08.875Z,6.00
2019-05-15T20:59:38.769Z,5.03
2019-05-15T21:02:28.990Z,5.17
2019-05-15T21:05:00.662Z,5.60
2019-05-15T21:07:38.152Z,4.93
2019-05-15T21:10:00.964Z,6.17
2019-05-15T21:15:35.720Z,5.47
2019-05-15T21:31:49.915Z,5.37
2019-05-15T21:34:33.390Z,7.17
2019-05-15T21:37:27.534Z,6.77
2019-05-15T21:40:16.835Z,7.67
2019-05-15T21:42:48.878Z,8.43
2019-05-15T21:45:37.610Z,7.40
2019-05-15T21:48:09.019Z,8.27
2019-05-15T21:50:38.837Z,7.30
2019-05-15T21:53:08.070Z,6.10
2019-05-15T21:55:38.839Z,9.20
2019-05-15T21:58:08.724Z,6.97
2019-05-15T22:00:41.411Z,6.03
2019-05-15T22:03:10.550Z,8.67
2019-05-15T22:05:39.724Z,5.50
2019-05-15T22:08:08.855Z,8.77
2019-05-15T22:10:38.848Z,7.13
2019-05-15T22:13:08.111Z,10.77
2019-05-15T22:15:37.357Z,9.00
2019-05-15T22:18:08.679Z,6.37
2019-05-15T22:20:38.773Z,9.57
2019-05-15T22:23:08.277Z,7.53
2019-05-15T22:25:59.634Z,6.13
2019-05-15T22:28:48.974Z,9.30
2019-05-15T22:31:18.263Z,7.23
2019-05-15T22:33:48.000Z,9.47
2019-05-15T22:36:18.873Z,7.97
2019-05-15T23:03:43.815Z,7.13
2019-05-15T23:06:12.919Z,7.07
2019-05-15T23:08:42.079Z,7.23
2019-05-15T23:11:11.103Z,7.13
2019-05-15T23:13:40.115Z,7.67
2019-05-15T23:16:09.216Z,6.97
2019-05-15T23:18:38.331Z,9.10
2019-05-15T23:21:08.848Z,9.13
2019-05-15T23:23:38.251Z,7.77
2019-05-15T23:26:07.322Z,7.93
2019-05-15T23:28:38.521Z,8.10
2019-05-15T23:31:08.293Z,10.33
2019-05-15T23:33:38.713Z,8.43
2019-05-15T23:36:08.036Z,8.23
2019-05-15T23:38:38.464Z,8.10
2019-05-15T23:41:08.234Z,7.83
2019-05-15T23:43:38.908Z,11.53
2019-05-15T23:46:08.199Z,9.27
2019-05-15T23:48:38.245Z,10.50
2019-05-15T23:51:27.932Z,10.27
2019-05-15T23:53:58.741Z,9.53
2019-05-15T23:56:29.124Z,11.27
2019-05-15T23:58:58.386Z,8.33
